Home > Products > Valid Products > TAF

000
FTUS41 KPHI 222300 RRA
TAFACY
TAF
KACY 222344Z 2300/2324 07005KT 5SM -RA BKN020
     FM230200 07005KT 3SM -RA BR BKN006 OVC015
     FM230500 06007KT 2SM -RA BR OVC004
     FM231700 09005KT 5SM BR OVC006=



000
FTUS41 KPHI 222300 RRA
TAFTTN
TAF
KTTN 222344Z 2300/2324 04005KT 4SM -RA BR OVC006
      TEMPO 2301/2302 2SM RA
     FM230600 07007KT 2SM -RA BR OVC004
     FM231700 10005KT 5SM BR OVC006=



000
FTUS41 KPHI 222300 RRA
TAFMIV
TAF
KMIV 222344Z 2300/2324 07005KT 5SM -RA BKN020
     FM230200 07005KT 3SM -RA BR BKN006 OVC015
     FM230500 06005KT 2SM -RA BR OVC004
     FM231700 09005KT 5SM BR OVC006=



000
FTUS41 KPHI 222300 RRA
TAFRDG
TAF
KRDG 222344Z 2300/2324 04005KT P6SM -RA OVC035
     FM230100 05004KT 5SM -RA BR OVC015
     FM230400 VRB03KT 4SM -RA BR BKN006
     FM230500 VRB03KT 2SM -RA BR OVC004
     FM231700 08005KT 5SM BR OVC006=



000
FTUS41 KPHI 222300 RRA
TAFABE
TAF
KABE 222344Z 2300/2324 08005KT 4SM -RA BR BKN006
     FM230300 08005KT 2SM -RA BR OVC004
     FM231700 08005KT 5SM BR OVC006=



000
FTUS41 KPHI 222300 RRA
TAFPNE
TAF
KPNE 222344Z 2300/2324 04005KT 5SM -RA BKN020
      TEMPO 2300/2301 2SM RA
     FM230300 05005KT 5SM -RA BR BKN006 OVC015
     FM230700 07005KT 2SM -RA BR OVC004
     FM231700 10005KT 5SM BR OVC006=



000
FTUS41 KPHI 222300 RRA
TAFILG
TAF
KILG 222344Z 2300/2324 07008KT 4SM -RA BKN020 OVC035
     FM230300 07005KT 4SM -RA BR BKN006 OVC015
     FM230700 06007KT 2SM -RA BR OVC004
     FM231700 10005KT 5SM BR OVC006=



000
FTUS41 KPHI 222300 RRA
TAFPHL
TAF
KPHL 222344Z 2300/2406 06008KT 5SM -RA BKN020 OVC035
      TEMPO 2300/2301 2SM RA
     FM230400 05005KT 4SM -RA BR BKN006 OVC015
     FM230800 06005KT 2SM -RA BR OVC004
     FM231700 08005KT 5SM -DZ BR OVC006
     FM240200 VRB02KT 3SM -DZ BR OVC004=



000
FTUS41 KPHI 222000 AAA
TAFACY
TAF AMD
KACY 222024Z 2220/2318 06009KT P6SM VCSH SCT025 OVC050
      TEMPO 2221/2223 6SM -RA BR BKN020 OVC035
     FM222300 07005KT 5SM -RA BKN020 OVC035
     FM230100 07005KT 3SM -RA BR BKN006 OVC015
     FM230400 06007KT 2SM -RA BR OVC004
     FM231700 09005KT 5SM BR OVC006=



000
FTUS41 KPHI 222000 AAA
TAFILG
TAF AMD
KILG 222023Z 2220/2318 07007KT P6SM SCT020 OVC050
      TEMPO 2221/2223 -RA BKN020 OVC035
     FM222300 07005KT P6SM -RA BKN020 OVC035
     FM230100 07005KT 4SM -RA BR BKN006 OVC015
     FM230500 06007KT 2SM -RA BR OVC004
     FM231700 10005KT 5SM BR OVC006=



000
FTUS41 KPHI 222000 AAA
TAFMIV
TAF AMD
KMIV 222023Z 2220/2318 06005KT P6SM VCSH SCT025 OVC060
      TEMPO 2221/2223 6SM -RA BR BKN025 OVC040
     FM222300 07005KT 5SM -RA BKN020 OVC035
     FM230100 07005KT 3SM -RA BR BKN006 OVC015
     FM230400 06005KT 2SM -RA BR OVC004
     FM231700 09005KT 5SM BR OVC006=



000
FTUS41 KPHI 222000 AAA
TAFPHL
TAF AMD
KPHL 222022Z 2220/2324 06007KT P6SM SCT020 OVC040
      TEMPO 2221/2223 BKN020 OVC035
     FM222300 06005KT P6SM -RA BKN020 OVC035
     FM230200 05005KT 4SM -RA BR BKN006 OVC015
     FM230600 06005KT 2SM -RA BR OVC004
     FM231700 11005KT 5SM -DZ BR OVC006=



000
FTUS41 KPHI 222000 AAA
TAFRDG
TAF AMD
KRDG 222022Z 2220/2318 VRB03KT P6SM SCT025 OVC050
      TEMPO 2221/2223 BKN020 OVC035
     FM222300 08005KT P6SM -RA OVC020
     FM230100 VRB03KT 4SM -RA BR BKN006 OVC015
     FM230500 VRB03KT 2SM -RA BR OVC004
     FM231700 08005KT 5SM BR OVC006=



000
FTUS41 KPHI 222000 AAA
TAFPNE
TAF AMD
KPNE 222021Z 2220/2318 07007KT P6SM SCT020 OVC040
      TEMPO 2221/2223 BKN020 OVC035
     FM222300 06005KT P6SM -RA BKN020 OVC035
     FM230100 05005KT 5SM -RA BR BKN006 OVC015
     FM230600 07005KT 2SM -RA BR OVC004
     FM231700 10005KT 5SM BR OVC006=



000
FTUS41 KPHI 222000 AAA
TAFTTN
TAF AMD
KTTN 222020Z 2220/2318 06005KT 6SM BR SCT007 OVC020
      TEMPO 2220/2223 3SM BR BKN007 OVC025
     FM222300 08005KT 4SM -RA OVC010
     FM230100 08005KT 2SM -RA BR OVC006
     FM230600 07007KT 2SM -RA BR OVC004
     FM231700 10005KT 5SM BR OVC006=



000
FTUS41 KPHI 222000 AAA
TAFABE
TAF AMD
KABE 222019Z 2220/2318 06005KT P6SM SCT020 OVC050
      TEMPO 2221/2223 BKN020 OVC035
     FM222300 08005KT P6SM -RA OVC020
     FM230100 08005KT 4SM -RA BR BKN006 OVC015
     FM230500 08005KT 2SM -RA BR OVC004
     FM231700 08005KT 5SM BR OVC006=



000
FTUS41 KPHI 221700
TAFABE
TAF
KABE 221737Z 2218/2318 09005KT P6SM OVC015
      TEMPO 2218/2221 SCT020 OVC035
     FM222100 08005KT P6SM -RA OVC020
     FM230000 08005KT 4SM -RA BR BKN006 OVC015
     FM230500 08005KT 2SM -RA BR OVC004
     FM231700 08005KT 5SM BR OVC006=



000
FTUS41 KPHI 221700
TAFRDG
TAF
KRDG 221737Z 2218/2318 VRB03KT P6SM SCT025 OVC040
      TEMPO 2218/2221 BKN020 OVC035
     FM222100 08005KT P6SM -RA OVC020
     FM230000 VRB03KT 4SM -RA BR BKN006 OVC015
     FM230500 VRB03KT 2SM -RA BR OVC004
     FM231700 08005KT 5SM BR OVC006=



000
FTUS41 KPHI 221700
TAFILG
TAF
KILG 221737Z 2218/2318 08008KT P6SM SCT020 OVC040
      TEMPO 2219/2221 6SM -RA BR BKN020 OVC035
     FM222100 07005KT 6SM -RA BKN020 OVC035
     FM230000 07005KT 4SM -RA BR BKN006 OVC015
     FM230500 06007KT 2SM -RA BR OVC004
     FM231700 10005KT 5SM BR OVC006=



000
FTUS41 KPHI 221700
TAFACY
TAF
KACY 221737Z 2218/2318 06007KT P6SM SCT020 OVC040
      TEMPO 2219/2221 6SM -RA BR BKN020 OVC035
     FM222100 07005KT 5SM -RA BKN020 OVC035
     FM230000 07005KT 3SM -RA BR BKN006 OVC015
     FM230400 06007KT 2SM -RA BR OVC004
     FM231700 09005KT 5SM BR OVC006=



000
FTUS41 KPHI 221700
TAFMIV
TAF
KMIV 221737Z 2218/2318 06005KT P6SM SCT020 OVC040
      TEMPO 2219/2221 6SM -RA BR BKN020 OVC035
     FM222100 07005KT 5SM -RA BKN020 OVC035
     FM230000 07005KT 3SM -RA BR BKN006 OVC015
     FM230400 06005KT 2SM -RA BR OVC004
     FM231700 09005KT 5SM BR OVC006=



000
FTUS41 KPHI 221700
TAFTTN
TAF
KTTN 221737Z 2218/2318 06005KT P6SM BKN020 OVC040
      TEMPO 2220/2222 6SM -RA BR SCT020 OVC035
     FM222200 08005KT 6SM -RA BKN020 OVC035
     FM230000 08005KT 4SM -RA BR BKN006 OVC015
     FM230600 07007KT 2SM -RA BR OVC004
     FM231700 10005KT 5SM BR OVC006=



000
FTUS41 KPHI 221700
TAFPHL
TAF
KPHL 221737Z 2218/2324 07007KT P6SM SCT020 OVC040
      TEMPO 2220/2222 -RA BKN020 OVC035
     FM222200 06005KT 6SM -RA BKN020 OVC035
     FM230100 05005KT 4SM -RA BR BKN006 OVC015
     FM230600 06005KT 2SM -RA BR OVC004
     FM231700 11005KT 5SM -DZ BR OVC006=



000
FTUS41 KPHI 221700
TAFPNE
TAF
KPNE 221737Z 2218/2318 07007KT P6SM SCT020 OVC040
      TEMPO 2220/2222 -RA BKN020 OVC035
     FM222200 06005KT 6SM -RA BKN020 OVC035
     FM230100 05005KT 4SM -RA BR BKN006 OVC015
     FM230600 07005KT 2SM -RA BR OVC004
     FM231700 10005KT 5SM BR OVC006=



000
FTUS41 KPHI 221600 AAA
TAFPNE
TAF AMD
KPNE 221601Z 2216/2312 06005KT P6SM BKN020
      TEMPO 2217/2220 SCT020 OVC040
     FM222000 08004KT 6SM -RA BKN020 OVC035
     FM230000 09004KT 4SM -RA BR BKN007 OVC015
     FM230600 05006KT 2SM -RADZ BR OVC004=



000
FTUS41 KPHI 221600 AAA
TAFPNE
TAF AMD
KPNE 221601Z 2216/2312 06005KT P6SM BKN020
      TEMPO 2217/2220 SCT020 OVC040
     FM222000 08004KT 6SM -RA BKN020 OVC035
     FM230000 09004KT 4SM -RA BR BKN007 OVC015
     FM230600 05006KT 2SM -RADZ BR OVC004=



000
FTUS41 KPHI 221500 AAA
TAFABE
TAF AMD
KABE 221510Z 2215/2312 VRB03KT P6SM BKN012 OVC025
     FM221800 09005KT P6SM SCT025 OVC060
      TEMPO 2219/2221 6SM -RA
     FM222100 08004KT 5SM -RA BKN025 OVC050
     FM230500 07004KT 4SM -RA BR BKN007 OVC015
     FM230800 07005KT 2SM -RADZ BR OVC004=



000
FTUS41 KPHI 221400 AAB
TAFRDG
TAF AMD
KRDG 221447Z 2215/2312 VRB03KT P6SM OVC020
      TEMPO 2216/2218 SCT020 BKN050
     FM221800 08005KT P6SM SCT025 OVC050
      TEMPO 2218/2221 6SM -RA
     FM222100 10004KT 5SM -RA BKN025 OVC050
     FM230400 VRB02KT 4SM -RA BR BKN007 OVC015
     FM230700 VRB02KT 2SM -RADZ BR OVC004=



000
FTUS41 KPHI 221400 AAB
TAFTTN
TAF AMD
KTTN 221446Z 2215/2312 06005KT P6SM SCT020
      TEMPO 2216/2220 BKN020
     FM222100 10005KT 6SM -RA BKN025 OVC050
     FM230100 09005KT 4SM -RA BR BKN007 OVC015
     FM230600 08005KT 2SM -RADZ BR OVC004=



000
FTUS41 KPHI 221400 AAB
TAFPHL
TAF AMD
KPHL 221445Z 2215/2318 05005KT P6SM SCT020 BKN100
     FM221600 08005KT P6SM SCT025 OVC050
      TEMPO 2219/2222 6SM -RA
     FM222200 07005KT 5SM -RA BKN025 OVC050
     FM230100 06005KT 3SM -RA BR BKN007 OVC015
     FM230600 05005KT 2SM -RADZ BR OVC004=



000
FTUS41 KPHI 221300 AAA
TAFPHL
TAF AMD
KPHL 221301Z 2213/2318 34005KT P6SM SCT020 BKN050
      TEMPO 2214/2216 BKN020
     FM221600 08005KT P6SM SCT025 OVC060
      TEMPO 2217/2220 6SM -RA
     FM222000 07004KT 5SM -RA BKN025 OVC050
     FM230100 06004KT 3SM -RA BR BKN007 OVC015
     FM230600 05006KT 2SM -RADZ BR OVC004=



000
FTUS41 KPHI 221300 AAA
TAFRDG
TAF AMD
KRDG 221300Z 2213/2312 VRB02KT 6SM BR OVC020
     FM221700 08005KT P6SM SCT025 OVC060
      TEMPO 2217/2220 6SM -RA
     FM222000 10004KT 5SM -RA BKN025 OVC050
     FM230400 VRB02KT 4SM -RA BR BKN007 OVC015
     FM230700 VRB02KT 2SM -RADZ BR OVC004=



000
FTUS41 KPHI 221300 AAA
TAFRDG
TAF AMD
KRDG 221300Z 2213/2312 VRB02KT 6SM BR OVC020
     FM221700 08005KT P6SM SCT025 OVC060
      TEMPO 2217/2220 6SM -RA
     FM222000 10004KT 5SM -RA BKN025 OVC050
     FM230400 VRB02KT 4SM -RA BR BKN007 OVC015
     FM230700 VRB02KT 2SM -RADZ BR OVC004=



000
FTUS41 KPHI 221100 AAA
TAFTTN
TAF AMD
KTTN 221158Z 2212/2312 04004KT P6SM OVC018
     FM221800 11005KT P6SM SCT025 OVC060
      TEMPO 2218/2221 6SM -RA
     FM222100 10004KT 5SM -RA BKN025 OVC050
     FM230100 09004KT 4SM -RA BR BKN007 OVC015
     FM230600 08005KT 2SM -RADZ BR OVC004=



000
FTUS41 KPHI 221100
TAFTTN
TAF
KTTN 221127Z 2212/2312 04004KT P6SM OVC020
     FM221800 11005KT P6SM SCT025 OVC060
      TEMPO 2218/2221 6SM -RA
     FM222100 10004KT 5SM -RA BKN025 OVC050
     FM230100 09004KT 4SM -RA BR BKN007 OVC015
     FM230600 08005KT 2SM -RADZ BR OVC004=



000
FTUS41 KPHI 221100
TAFPHL
TAF
KPHL 221127Z 2212/2318 34005KT P6SM OVC020
     FM221400 02004KT P6SM BKN020 OVC080
     FM221600 08005KT P6SM SCT025 OVC060
      TEMPO 2217/2220 6SM -RA
     FM222000 07004KT 5SM -RA BKN025 OVC050
     FM230100 06004KT 3SM -RA BR BKN007 OVC015
     FM230600 05006KT 2SM -RADZ BR OVC004=



000
FTUS41 KPHI 221100
TAFMIV
TAF
KMIV 221127Z 2212/2312 VRB02KT P6SM OVC150
     FM221600 08004KT P6SM SCT025 OVC060
      TEMPO 2217/2220 6SM -RA
     FM222000 09004KT 5SM -RA BKN020 OVC050
     FM230000 08004KT 3SM -RA BR BKN007 OVC015
     FM230500 06004KT 2SM -RADZ BR OVC004=



000
FTUS41 KPHI 221100
TAFRDG
TAF
KRDG 221127Z 2212/2312 VRB02KT 5SM BR OVC020
     FM221700 08005KT P6SM SCT025 OVC060
      TEMPO 2217/2220 6SM -RA
     FM222000 10004KT 5SM -RA BKN025 OVC050
     FM230400 VRB02KT 4SM -RA BR BKN007 OVC015
     FM230700 VRB02KT 2SM -RADZ BR OVC004=



000
FTUS41 KPHI 221100
TAFABE
TAF
KABE 221127Z 2212/2312 VRB02KT P6SM OVC020
     FM221800 09005KT P6SM SCT025 OVC060
      TEMPO 2218/2221 6SM -RA
     FM222100 08004KT 5SM -RA BKN025 OVC050
     FM230500 07004KT 4SM -RA BR BKN007 OVC015
     FM230800 07005KT 2SM -RADZ BR OVC004=



000
FTUS41 KPHI 221100
TAFPNE
TAF
KPNE 221127Z 2212/2312 01004KT P6SM OVC020
     FM221600 08005KT P6SM SCT025 OVC060
      TEMPO 2217/2220 6SM -RA
     FM222000 08004KT 5SM -RA BKN025 OVC050
     FM230100 09004KT 4SM -RA BR BKN007 OVC015
     FM230600 05006KT 2SM -RADZ BR OVC004=



000
FTUS41 KPHI 221100
TAFILG
TAF
KILG 221127Z 2212/2312 36004KT P6SM OVC150
     FM221600 08005KT P6SM SCT025 OVC060
      TEMPO 2217/2220 6SM -RA
     FM222000 09004KT 5SM -RA BKN020 OVC050
     FM230100 07004KT 3SM -RA BR BKN007 OVC015
     FM230500 05006KT 2SM -RADZ BR OVC004=



000
FTUS41 KPHI 221100
TAFACY
TAF
KACY 221127Z 2212/2312 VRB02KT P6SM OVC150
     FM221600 08005KT P6SM SCT025 OVC060
      TEMPO 2217/2220 6SM -RA
     FM222000 09005KT 5SM -RA BKN020 OVC050
     FM230000 08005KT 3SM -RA BR BKN007 OVC015
     FM230500 07006KT 2SM -RADZ BR OVC004=



000
FTUS41 KPHI 220900 AAA
TAFPHL
TAF AMD
KPHL 220912Z 2209/2312 33004KT P6SM BKN030 OVC080
     FM221200 02004KT P6SM BKN030 OVC080
     FM221600 08005KT P6SM SCT025 OVC060
      TEMPO 2217/2220 6SM -RA
     FM222000 07004KT 5SM -RA BKN025 OVC050
     FM230100 06004KT 3SM -RA BR BKN007 OVC015
     FM230600 05006KT 2SM -RADZ BR OVC004=



000
FTUS41 KPHI 220500
TAFMIV
TAF
KMIV 220532Z 2206/2306 00000KT P6SM BKN250
     FM221300 06004KT P6SM BKN150
     FM221600 08005KT P6SM SCT025 OVC060
      TEMPO 2217/2220 6SM -RA
     FM222000 08004KT 5SM -RA BKN020 OVC050
     FM230000 07004KT 3SM -RA BR BKN007 OVC015=



000
FTUS41 KPHI 220500
TAFPHL
TAF
KPHL 220532Z 2206/2312 33004KT P6SM SCT030
     FM220800 02004KT P6SM OVC030
     FM221600 08005KT P6SM SCT025 OVC060
      TEMPO 2217/2220 6SM -RA
     FM222000 07004KT 5SM -RA BKN025 OVC050
     FM230100 06004KT 3SM -RA BR BKN007 OVC015
     FM230600 05006KT 2SM -RADZ BR OVC004=



000
FTUS41 KPHI 220500
TAFTTN
TAF
KTTN 220532Z 2206/2306 VRB03KT P6SM OVC020
     FM221800 09005KT P6SM SCT025 OVC060
      TEMPO 2219/2222 6SM -RA
     FM222200 11004KT 5SM -RA BKN025 OVC050
     FM230100 09004KT 4SM -RA BR BKN007 OVC015=



000
FTUS41 KPHI 220500
TAFABE
TAF
KABE 220532Z 2206/2306 VRB03KT P6SM OVC027
     FM221800 08005KT P6SM SCT025 OVC060
      TEMPO 2219/2222 6SM -RA
     FM222200 07004KT 5SM -RA BKN025 OVC050
     FM230300 07004KT 4SM -RA BR BKN007 OVC015=



000
FTUS41 KPHI 220500
TAFPNE
TAF
KPNE 220532Z 2206/2306 VRB03KT P6SM OVC025
     FM221600 08005KT P6SM SCT025 OVC060
      TEMPO 2217/2220 6SM -RA
     FM222000 08004KT 5SM -RA BKN025 OVC050
     FM230100 09004KT 4SM -RA BR BKN007 OVC015=



000
FTUS41 KPHI 220500
TAFACY
TAF
KACY 220532Z 2206/2306 VRB03KT P6SM BKN250
     FM221300 04004KT P6SM BKN150
     FM221600 09005KT P6SM SCT025 OVC060
      TEMPO 2217/2220 6SM -RA
     FM222000 08004KT 5SM -RA BKN020 OVC050
     FM230000 07004KT 3SM -RA BR BKN007 OVC015=



000
FTUS41 KPHI 220500
TAFILG
TAF
KILG 220532Z 2206/2306 34004KT P6SM SCT250
      TEMPO 2207/2211 6SM BR
     FM221100 02004KT P6SM BKN150
     FM221600 08005KT P6SM SCT025 OVC060
      TEMPO 2217/2220 6SM -RA
     FM222000 09004KT 5SM -RA BKN020 OVC050
     FM230100 06004KT 3SM -RA BR BKN007 OVC015=



000
FTUS41 KPHI 220500
TAFRDG
TAF
KRDG 220532Z 2206/2306 00000KT P6SM SCT250
     FM220800 VRB02KT P6SM OVC027
     FM221800 08005KT P6SM SCT025 OVC060
      TEMPO 2218/2221 6SM -RA
     FM222100 09004KT 5SM -RA BKN025 OVC050
     FM230200 09004KT 4SM -RA BR BKN007 OVC015=



000
FTUS41 KPHI 220300 AAA
TAFABE
TAF AMD
KABE 220348Z 2204/2224 VRB03KT P6SM OVC027
     FM221400 06004KT P6SM BKN250
     FM221900 08005KT P6SM OVC100
     FM222100 08005KT P6SM BKN060
      TEMPO 2221/2223 5SM -RASN
     FM222300 07004KT P6SM BKN030
      TEMPO 2223/2224 5SM -RA=



000
FTUS41 KPHI 220300 AAA
TAFABE
TAF AMD
KABE 220348Z 2204/2224 VRB03KT P6SM OVC027
     FM221400 06004KT P6SM BKN250
     FM221900 08005KT P6SM OVC100
     FM222100 08005KT P6SM BKN060
      TEMPO 2221/2223 5SM -RASN
     FM222300 07004KT P6SM BKN030
      TEMPO 2223/2224 5SM -RA=



000
FTUS41 KPHI 220300 AAA
TAFPHL
TAF AMD
KPHL 220345Z 2204/2306 VRB03KT P6SM SCT250
     FM220600 VRB03KT P6SM BKN025
     FM221300 04004KT P6SM BKN250
     FM221700 08005KT P6SM BKN050
      TEMPO 2217/2220 5SM -RASN
     FM222000 07004KT P6SM BKN025
      TEMPO 2221/2224 5SM -RA
     FM230000 07004KT P6SM -RA BKN025
     FM230300 06004KT 3SM -RA BR BKN010=



000
FTUS41 KPHI 220200 AAA
TAFTTN
TAF AMD
KTTN 220245Z 2203/2224 36003KT P6SM BKN028
     FM221400 03004KT P6SM BKN250
     FM221900 09005KT P6SM OVC100
     FM222100 10005KT P6SM BKN060
      TEMPO 2221/2223 5SM -RA
     FM222300 11004KT P6SM BKN030
      TEMPO 2223/2224 5SM -RA=



000
FTUS41 KPHI 220200 AAA
TAFTTN
TAF AMD
KTTN 220245Z 2203/2224 36003KT P6SM BKN028
     FM221400 03004KT P6SM BKN250
     FM221900 09005KT P6SM OVC100
     FM222100 10005KT P6SM BKN060
      TEMPO 2221/2223 5SM -RA
     FM222300 11004KT P6SM BKN030
      TEMPO 2223/2224 5SM -RA=



000
FTUS41 KPHI 220200 AAA
TAFPNE
TAF AMD
KPNE 220244Z 2203/2224 36003KT P6SM BKN025
     FM221300 01004KT P6SM BKN250
     FM221500 05005KT P6SM OVC100
     FM221700 08005KT P6SM BKN050
      TEMPO 2217/2220 5SM -RASN
     FM222000 07004KT P6SM BKN025
      TEMPO 2221/2224 5SM -RA=



000
FTUS41 KPHI 220200 AAA
TAFPNE
TAF AMD
KPNE 220244Z 2203/2224 36003KT P6SM BKN025
     FM221300 01004KT P6SM BKN250
     FM221500 05005KT P6SM OVC100
     FM221700 08005KT P6SM BKN050
      TEMPO 2217/2220 5SM -RASN
     FM222000 07004KT P6SM BKN025
      TEMPO 2221/2224 5SM -RA=



000
FTUS41 KPHI 212300 RRA
TAFPNE
TAF
KPNE 212342Z 2200/2224 36003KT P6SM SCT250
     FM221300 01004KT P6SM BKN250
     FM221500 05005KT P6SM OVC100
     FM221700 08005KT P6SM BKN050
      TEMPO 2217/2220 5SM -RASN
     FM222000 07004KT P6SM BKN025
      TEMPO 2221/2224 5SM -RA=



000
FTUS41 KPHI 212300 RRA
TAFMIV
TAF
KMIV 212342Z 2200/2224 35004KT P6SM BKN250
     FM221200 04004KT P6SM BKN250
     FM221400 07005KT P6SM OVC100
     FM221600 07005KT P6SM BKN040
      TEMPO 2216/2220 5SM -RASN
     FM222000 08004KT 5SM -RA BR BKN020=



000
FTUS41 KPHI 212300 RRA
TAFABE
TAF
KABE 212342Z 2200/2224 33005KT P6SM SCT030
      TEMPO 2200/2204 BKN030
     FM220400 01002KT P6SM FEW030 SCT250
     FM221400 06004KT P6SM BKN250
     FM221900 08005KT P6SM OVC100
     FM222100 08005KT P6SM BKN060
      TEMPO 2221/2223 5SM -RASN
     FM222300 07004KT P6SM BKN030
      TEMPO 2223/2224 5SM -RA=



000
FTUS41 KPHI 212300 RRA
TAFPHL
TAF
KPHL 212342Z 2200/2306 33005KT P6SM SCT250
     FM221300 04004KT P6SM BKN250
     FM221500 07005KT P6SM OVC100
     FM221700 08005KT P6SM BKN050
      TEMPO 2217/2220 5SM -RASN
     FM222000 07004KT P6SM BKN025
      TEMPO 2221/2224 5SM -RA
     FM230000 07004KT P6SM -RA BKN025
     FM230300 06004KT 3SM -RA BR BKN010=



000
FTUS41 KPHI 212300 RRA
TAFILG
TAF
KILG 212342Z 2200/2224 33005KT P6SM SCT250
     FM221200 02004KT P6SM BKN250
     FM221400 05005KT P6SM OVC100
     FM221600 08005KT P6SM BKN040
      TEMPO 2216/2220 5SM -RASN
     FM222000 09004KT P6SM BKN020
      TEMPO 2221/2224 5SM -RA=



000
FTUS41 KPHI 212300 RRA
TAFACY
TAF
KACY 212342Z 2200/2224 34004KT P6SM BKN250
     FM221200 04004KT P6SM BKN250
     FM221400 06005KT P6SM OVC100
     FM221600 07007KT P6SM BKN040
      TEMPO 2216/2220 5SM -RA
     FM222000 09004KT 5SM -RA BR BKN020=



000
FTUS41 KPHI 212300 RRA
TAFTTN
TAF
KTTN 212342Z 2200/2224 34005KT P6SM BKN028
      TEMPO 2200/2204 SCT028
     FM220400 36003KT P6SM FEW030 SCT250
     FM221400 03004KT P6SM BKN250
     FM221900 09005KT P6SM OVC100
     FM222100 10005KT P6SM BKN060
      TEMPO 2221/2223 5SM -RA
     FM222300 11004KT P6SM BKN030
      TEMPO 2223/2224 5SM -RA=



000
FTUS41 KPHI 212300 RRA
TAFRDG
TAF
KRDG 212342Z 2200/2224 35002KT P6SM SCT250
     FM221300 06004KT P6SM BKN250
     FM221700 07005KT P6SM OVC100
     FM221900 09005KT P6SM BKN060
      TEMPO 2219/2221 5SM -RASN
     FM222100 09004KT P6SM BKN030
      TEMPO 2221/2224 5SM -RA=



000
FTUS41 KPHI 212200 AAB
TAFTTN
TAF AMD
KTTN 212230Z 2123/2218 34005KT P6SM BKN028
     FM220200 36004KT P6SM SCT030
     FM220400 01003KT P6SM FEW015 BKN250
     FM221300 04004KT P6SM BKN010 BKN120=



000
FTUS41 KPHI 212200 AAA
TAFRDG
TAF AMD
KRDG 212227Z 2122/2218 31005KT P6SM FEW030
     FM220200 00000KT P6SM SCT250
     FM221500 06005KT P6SM FEW015 OVC100=



000
FTUS41 KPHI 212000 AAA
TAFPHL
TAF AMD
KPHL 212050Z 2121/2224 33008KT P6SM FEW030 SCT035
     FM212300 36005KT P6SM FEW035 BKN250
     FM221300 03003KT P6SM FEW015 OVC120
     FM221700 05006KT P6SM SCT015 OVC080
     FM222000 07005KT 6SM -RA OVC015=



000
FTUS41 KPHI 212000 AAA
TAFTTN
TAF AMD
KTTN 212048Z 2121/2218 32006KT P6SM BKN029
     FM212200 34004KT P6SM SCT030
     FM220200 01003KT P6SM FEW015 BKN250
     FM221300 04004KT P6SM BKN010 BKN120=



000
FTUS41 KPHI 211700
TAFTTN
TAF
KTTN 211730Z 2118/2218 35007KT P6SM BKN027
     FM212000 01006KT P6SM SCT030
     FM220200 03003KT P6SM FEW015 BKN250
     FM221300 04004KT P6SM BKN010 BKN120=



000
FTUS41 KPHI 211700
TAFRDG
TAF
KRDG 211730Z 2118/2218 32008KT P6SM BKN028
     FM212000 33005KT P6SM SCT030
     FM220200 00000KT P6SM SCT250
     FM221500 06005KT P6SM FEW015 OVC100=



000
FTUS41 KPHI 211700
TAFPHL
TAF
KPHL 211730Z 2118/2224 33009KT P6SM FEW025 SCT035
     FM212300 36005KT P6SM FEW035 BKN250
     FM221300 03003KT P6SM SCT015 OVC120
     FM221700 06006KT P6SM BKN015 OVC080
     FM222000 07005KT 6SM -RA OVC015=



000
FTUS41 KPHI 211700
TAFILG
TAF
KILG 211730Z 2118/2218 34009KT P6SM FEW035
     FM212300 36005KT P6SM FEW035 BKN250
     FM221200 04005KT P6SM OVC120
     FM221700 05005KT 6SM -RA BKN025 OVC060=



000
FTUS41 KPHI 211700
TAFPNE
TAF
KPNE 211730Z 2118/2218 35009KT P6SM FEW025 SCT035
     FM212300 VRB03KT P6SM FEW035 BKN250
     FM221300 03003KT P6SM SCT015 BKN120
     FM221600 05005KT P6SM BKN015 OVC090=



000
FTUS41 KPHI 211700
TAFACY
TAF
KACY 211730Z 2118/2218 33008KT P6SM FEW030
     FM220100 00000KT P6SM FEW035 BKN250
     FM221300 04005KT P6SM BKN015 OVC120
     FM221700 08005KT 6SM -RA BKN025 OVC060=



000
FTUS41 KPHI 211700
TAFMIV
TAF
KMIV 211730Z 2118/2218 32008KT P6SM FEW030
     FM212300 00000KT P6SM FEW035 BKN250
     FM221200 04005KT P6SM OVC120
     FM221700 06005KT 6SM -RA BKN025 OVC060=



000
FTUS41 KPHI 211700
TAFABE
TAF
KABE 211730Z 2118/2218 32006KT P6SM BKN028
     FM212000 33005KT P6SM SCT030
     FM220200 00000KT P6SM SCT250
     FM221400 04005KT P6SM SCT015 BKN100=



000
FTUS41 KPHI 211600 AAA
TAFRDG
TAF AMD
KRDG 211634Z 2117/2212 32007KT P6SM BKN028
     FM212000 33005KT P6SM SCT030
     FM220000 00000KT P6SM SCT035 BKN250=



000
FTUS41 KPHI 211400 AAA
TAFPHL
TAF AMD
KPHL 211447Z 2115/2218 33006KT P6SM SCT035
     FM220000 VRB03KT P6SM SCT035 BKN250
     FM221500 06004KT P6SM SCT025 OVC080=



000
FTUS41 KPHI 211100
TAFTTN
TAF
KTTN 211133Z 2112/2212 30003KT P6SM SCT035 OVC110
     FM211500 36006KT P6SM BKN035 OVC110
     FM220000 VRB02KT P6SM SCT035 BKN250=



000
FTUS41 KPHI 211100
TAFABE
TAF
KABE 211133Z 2112/2212 34005KT P6SM BKN035 OVC120
     FM220000 VRB02KT P6SM SCT035 BKN250=



000
FTUS41 KPHI 211100
TAFMIV
TAF
KMIV 211133Z 2112/2212 00000KT P6SM OVC080
     FM211500 34005KT P6SM SCT035 OVC120
     FM212200 00000KT P6SM SCT035 BKN250=



000
FTUS41 KPHI 211100
TAFPHL
TAF
KPHL 211133Z 2112/2218 31004KT P6SM SCT035 OVC120
     FM211500 34006KT P6SM BKN035 OVC120
     FM220000 VRB03KT P6SM SCT035 BKN250
     FM221500 06004KT P6SM SCT025 OVC080=



000
FTUS41 KPHI 211100
TAFACY
TAF
KACY 211133Z 2112/2212 VRB03KT P6SM OVC070
     FM211500 33007KT P6SM SCT035 OVC120
     FM220000 00000KT P6SM SCT035 BKN250=



000
FTUS41 KPHI 211100
TAFPNE
TAF
KPNE 211133Z 2112/2212 30003KT P6SM SCT035 OVC110
     FM211500 33006KT P6SM BKN035 OVC110
     FM220000 VRB02KT P6SM SCT035 BKN250=



000
FTUS41 KPHI 211100
TAFRDG
TAF
KRDG 211133Z 2112/2212 30005KT P6SM SCT035 OVC110
     FM211500 32004KT P6SM BKN035 OVC110
     FM220000 00000KT P6SM SCT035 BKN250=



000
FTUS41 KPHI 211100
TAFILG
TAF
KILG 211133Z 2112/2212 32003KT P6SM OVC070
     FM211500 35006KT P6SM BKN035 OVC120
     FM220000 VRB03KT P6SM SCT035 BKN250=



000
FTUS41 KPHI 210900 CCA
TAFTTN
TAF COR
KTTN 210947Z 2109/2206 VRB03KT P6SM SCT035 OVC110
     FM211500 36005KT P6SM BKN035 OVC120
     FM220000 VRB02KT P6SM SCT035 BKN250=



000
FTUS41 KPHI 210900 CCA
TAFPNE
TAF COR
KPNE 210947Z 2109/2206 VRB03KT P6SM OVC035
     FM211500 32005KT P6SM BKN035 OVC120
     FM220000 VRB03KT P6SM SCT035 BKN250=



000
FTUS41 KPHI 210900 CCA
TAFTTN
TAF COR
KTTN 210947Z 2109/2206 VRB03KT P6SM SCT035 OVC110
     FM211500 36005KT P6SM BKN035 OVC120
     FM220000 VRB02KT P6SM SCT035 BKN250=



000
FTUS41 KPHI 210900 CCA
TAFPNE
TAF COR
KPNE 210947Z 2109/2206 VRB03KT P6SM OVC035
     FM211500 32005KT P6SM BKN035 OVC120
     FM220000 VRB03KT P6SM SCT035 BKN250=



000
FTUS41 KPHI 210900 AAA
TAFTTN
TAF AMD
KTTN 210900Z 2109/2206 VRB03KT P6SM SCT035 OVC110
     FM211200 36005KT P6SM BKN035 OVC120
     FM220000 VRB02KT P6SM SCT035 BKN250=



000
FTUS41 KPHI 210900 AAA
TAFPNE
TAF AMD
KPNE 210900Z 2109/2206 VRB03KT P6SM OVC035
     FM211200 32005KT P6SM BKN035 OVC120
     FM220000 VRB03KT P6SM SCT035 BKN250=



000
FTUS41 KPHI 210900 AAA
TAFPHL
TAF AMD
KPHL 210900Z 2109/2212 VRB03KT P6SM SCT035 OVC110
     FM211500 34005KT P6SM BKN035 OVC120
     FM220000 VRB03KT P6SM BKN250=



000
FTUS41 KPHI 210500
TAFRDG
TAF
KRDG 210522Z 2106/2206 00000KT P6SM OVC035
     FM210800 00000KT P6SM SCT035 OVC120
     FM211400 32004KT P6SM BKN035 OVC120
     FM220000 VRB02KT P6SM SCT035 BKN250=



000
FTUS41 KPHI 210500
TAFPHL
TAF
KPHL 210522Z 2106/2212 VRB03KT P6SM OVC035
     FM210800 00000KT P6SM SCT035 OVC120
     FM211300 34005KT P6SM BKN035 OVC120
     FM220000 VRB03KT P6SM BKN250=



000
FTUS41 KPHI 210500
TAFILG
TAF
KILG 210522Z 2106/2206 VRB02KT P6SM BKN090 OVC120
     FM211400 33005KT P6SM BKN035 OVC120
     FM220000 00000KT P6SM BKN250=



000
FTUS41 KPHI 210500
TAFACY
TAF
KACY 210522Z 2106/2206 VRB03KT P6SM OVC110
     FM211400 33006KT P6SM BKN035 OVC120
     FM220000 00000KT P6SM BKN250=



000
FTUS41 KPHI 210500
TAFTTN
TAF
KTTN 210522Z 2106/2206 VRB02KT P6SM OVC035
     FM210800 00000KT P6SM OVC030
     FM211400 36005KT P6SM BKN035 OVC120
     FM220000 VRB02KT P6SM SCT035 BKN250=



000
FTUS41 KPHI 210500
TAFMIV
TAF
KMIV 210522Z 2106/2206 00000KT P6SM BKN090 OVC120
     FM211400 33005KT P6SM BKN035 OVC120
     FM212200 00000KT P6SM BKN250=



000
FTUS41 KPHI 210500
TAFPNE
TAF
KPNE 210522Z 2106/2206 00000KT P6SM OVC030
     FM211400 32005KT P6SM BKN035 OVC120
     FM220000 VRB03KT P6SM SCT035 BKN250=



000
FTUS41 KPHI 210500
TAFABE
TAF
KABE 210522Z 2106/2206 00000KT P6SM OVC030
     FM211400 35004KT P6SM BKN035 OVC120
     FM220000 VRB02KT P6SM SCT035 BKN250=



000
FTUS41 KPHI 210300 AAA
TAFACY
TAF AMD
KACY 210359Z 2104/2124 00000KT P6SM OVC030
     FM210900 00000KT P6SM SCT035 BKN120
     FM211300 31003KT P6SM SCT035 BKN120
     FM211500 31007KT P6SM SCT040=



000
FTUS41 KPHI 210300 AAA
TAFPNE
TAF AMD
KPNE 210359Z 2104/2124 VRB03KT P6SM OVC030
     FM211300 30003KT P6SM BKN035 BKN120
     FM211700 36006KT P6SM SCT040=



000
FTUS41 KPHI 210300 AAB
TAFABE
TAF AMD
KABE 210359Z 2104/2124 00000KT P6SM OVC030
     FM211300 30004KT P6SM BKN035 BKN120
     FM211800 31005KT P6SM SCT040=



000
FTUS41 KPHI 210300 AAA
TAFPNE
TAF AMD
KPNE 210359Z 2104/2124 VRB03KT P6SM OVC030
     FM211300 30003KT P6SM BKN035 BKN120
     FM211700 36006KT P6SM SCT040=



000
FTUS41 KPHI 210300 AAB
TAFABE
TAF AMD
KABE 210359Z 2104/2124 00000KT P6SM OVC030
     FM211300 30004KT P6SM BKN035 BKN120
     FM211800 31005KT P6SM SCT040=



000
FTUS41 KPHI 210300 AAA
TAFACY
TAF AMD
KACY 210359Z 2104/2124 00000KT P6SM OVC030
     FM210900 00000KT P6SM SCT035 BKN120
     FM211300 31003KT P6SM SCT035 BKN120
     FM211500 31007KT P6SM SCT040=



000
FTUS41 KPHI 210200 AAB
TAFTTN
TAF AMD
KTTN 210218Z 2102/2124 00000KT P6SM BKN035
      TEMPO 2102/2104 BKN030
     FM210600 00000KT P6SM BKN035 BKN120
     FM211300 35003KT P6SM BKN035 BKN120
     FM211600 36005KT P6SM SCT040=



000
FTUS41 KPHI 210200 AAA
TAFABE
TAF AMD
KABE 210218Z 2102/2124 00000KT P6SM BKN035
      TEMPO 2102/2104 BKN030
     FM210600 00000KT P6SM BKN035 BKN120
     FM211300 30004KT P6SM BKN035 BKN120
     FM211800 31005KT P6SM SCT040=



000
FTUS41 KPHI 210100 AAA
TAFTTN
TAF AMD
KTTN 210146Z 2102/2124 00000KT P6SM BKN035
     FM210600 00000KT P6SM BKN035 BKN120
     FM211300 35003KT P6SM BKN035 BKN120
     FM211600 36005KT P6SM SCT040=



000
FTUS41 KPHI 202300
TAFMIV
TAF
KMIV 202327Z 2100/2124 00000KT P6SM SCT030
     FM210600 00000KT P6SM SCT035 BKN120
     FM211300 30003KT P6SM SCT035 BKN120
     FM211500 30005KT P6SM SCT040=



000
FTUS41 KPHI 202300
TAFABE
TAF
KABE 202327Z 2100/2124 00000KT P6SM BKN035
      TEMPO 2100/2104 BKN025
     FM210600 00000KT P6SM BKN035 BKN120
     FM211300 30004KT P6SM BKN035 BKN120
     FM211800 31005KT P6SM SCT040=



000
FTUS41 KPHI 202300
TAFACY
TAF
KACY 202327Z 2100/2124 32004KT P6SM SCT030
     FM210600 33002KT P6SM SCT035 BKN120
     FM211300 31003KT P6SM SCT035 BKN120
     FM211500 31007KT P6SM SCT040=



000
FTUS41 KPHI 202300
TAFPNE
TAF
KPNE 202327Z 2100/2124 02003KT P6SM BKN035
     FM210600 00000KT P6SM BKN035 BKN120
     FM211300 30003KT P6SM BKN035 BKN120
     FM211700 36006KT P6SM SCT040=



000
FTUS41 KPHI 202300
TAFPHL
TAF
KPHL 202327Z 2100/2206 02003KT P6SM BKN035
     FM210600 00000KT P6SM BKN035 BKN120
     FM211300 30003KT P6SM BKN035 BKN120
     FM211700 36006KT P6SM SCT040
     FM212300 32003KT P6SM FEW040=



000
FTUS41 KPHI 202300
TAFTTN
TAF
KTTN 202327Z 2100/2124 00000KT P6SM BKN035
      TEMPO 2100/2104 BKN025
     FM210600 00000KT P6SM BKN035 BKN120
     FM211300 35003KT P6SM BKN035 BKN120
     FM211600 36005KT P6SM SCT040=



000
FTUS41 KPHI 202300
TAFRDG
TAF
KRDG 202327Z 2100/2124 01003KT P6SM BKN035
     FM210600 00000KT P6SM BKN035 BKN120
     FM211300 32004KT P6SM BKN035 BKN120
     FM211700 32005KT P6SM SCT040=



000
FTUS41 KPHI 202300
TAFILG
TAF
KILG 202327Z 2100/2124 02003KT P6SM SCT035
     FM210600 00000KT P6SM SCT035 BKN120
     FM211300 30003KT P6SM BKN035 BKN120
     FM211700 36006KT P6SM SCT040=



000
FTUS41 KPHI 202100 AAB
TAFPHL
TAF AMD
KPHL 202102Z 2021/2124 34005KT P6SM BKN035
     FM202300 33005KT P6SM SCT035 BKN200
     FM211500 35007KT P6SM SCT040=



000
FTUS41 KPHI 202000 AAA
TAFMIV
TAF AMD
KMIV 202033Z 2021/2118 02004KT P6SM BKN030
     FM202100 02003KT P6SM SCT030 BKN200
     FM211400 35004KT P6SM SCT040=



000
FTUS41 KPHI 201900 AAA
TAFPNE
TAF AMD
KPNE 201904Z 2019/2118 02004KT P6SM OVC035
     FM202300 02004KT P6SM SCT035 BKN200
     FM211500 35007KT P6SM SCT040=



000
FTUS41 KPHI 201900 AAA
TAFILG
TAF AMD
KILG 201904Z 2019/2118 33004KT P6SM OVC035
     FM202100 32005KT P6SM SCT035 BKN200
     FM211500 35007KT P6SM SCT040=



000
FTUS41 KPHI 201900 AAA
TAFPHL
TAF AMD
KPHL 201903Z 2019/2124 01005KT P6SM OVC035
     FM202200 33005KT P6SM SCT035 BKN200
     FM211500 35007KT P6SM SCT040=



000
FTUS41 KPHI 201900 AAA
TAFRDG
TAF AMD
KRDG 201902Z 2019/2118 01005KT P6SM BKN035
     FM202200 VRB02KT P6SM SCT035 BKN200
     FM211500 32005KT P6SM SCT040=



000
FTUS41 KPHI 201700
TAFRDG
TAF
KRDG 201720Z 2018/2118 02006KT P6SM OVC030
     FM202200 VRB02KT P6SM SCT030 BKN200
     FM211500 32005KT P6SM SCT040=



000
FTUS41 KPHI 201700
TAFABE
TAF
KABE 201720Z 2018/2118 35003KT P6SM OVC025
     FM210000 VRB02KT P6SM SCT025 BKN200
     FM211500 35005KT P6SM SCT040=



000
FTUS41 KPHI 201700
TAFILG
TAF
KILG 201720Z 2018/2118 36004KT P6SM OVC030
     FM202100 34005KT P6SM SCT030 BKN200
     FM211500 35007KT P6SM SCT040=



000
FTUS41 KPHI 201700
TAFPNE
TAF
KPNE 201720Z 2018/2118 03007KT P6SM OVC030
     FM202300 02004KT P6SM SCT030 BKN200
     FM211500 35007KT P6SM SCT040=



000
FTUS41 KPHI 201700
TAFMIV
TAF
KMIV 201720Z 2018/2118 01004KT P6SM OVC025
     FM210000 00000KT P6SM SCT025 BKN200
     FM211400 35004KT P6SM SCT040=



000
FTUS41 KPHI 201700
TAFPHL
TAF
KPHL 201720Z 2018/2124 02005KT P6SM OVC030
     FM202200 33005KT P6SM SCT030 BKN200
     FM211500 35007KT P6SM SCT040=



000
FTUS41 KPHI 201700
TAFTTN
TAF
KTTN 201720Z 2018/2118 01006KT P6SM OVC025
     FM202300 02004KT P6SM SCT025 BKN200
     FM211500 36007KT P6SM SCT040=



000
FTUS41 KPHI 201700
TAFACY
TAF
KACY 201720Z 2018/2118 35008KT P6SM OVC025
     FM210000 33004KT P6SM SCT025 BKN200
     FM211400 35004KT P6SM SCT040=



000
FTUS41 KPHI 201600 AAA
TAFPNE
TAF AMD
KPNE 201657Z 2017/2112 36006KT P6SM OVC035
     FM210000 VRB02KT P6SM SCT030 BKN100=



000
FTUS41 KPHI 201600 AAB
TAFPHL
TAF AMD
KPHL 201621Z 2016/2118 02008KT P6SM OVC030
     FM202000 33005KT P6SM BKN030 BKN200
     FM210000 VRB02KT P6SM SCT030 BKN100
     FM211400 35005KT P6SM SCT030 BKN060=



000
FTUS41 KPHI 201600 AAA
TAFACY
TAF AMD
KACY 201606Z 2016/2112 35008KT P6SM OVC025
     FM210000 VRB02KT P6SM SCT025 BKN200=



000
FTUS41 KPHI 201600 AAA
TAFRDG
TAF AMD
KRDG 201606Z 2016/2112 35006KT P6SM OVC025
     FM210000 00000KT P6SM SCT025 BKN100=



000
FTUS41 KPHI 201600 AAA
TAFMIV
TAF AMD
KMIV 201605Z 2016/2112 01007KT P6SM OVC030
     FM202200 VRB02KT P6SM SCT030 BKN100=



000
FTUS41 KPHI 201500 AAA
TAFPHL
TAF AMD
KPHL 201526Z 2015/2118 35006KT P6SM OVC025
     FM201700 33005KT P6SM BKN025 BKN200
     FM210000 VRB02KT P6SM SCT030 BKN100
     FM211400 35005KT P6SM SCT030 BKN060=



000
FTUS41 KPHI 201200 AAA
TAFABE
TAF AMD
KABE 201235Z 2013/2112 36008KT P6SM OVC028
     FM201800 VRB03KT P6SM SCT030 BKN200
     FM210000 00000KT P6SM SCT025 BKN100=



000
FTUS41 KPHI 201100
TAFRDG
TAF
KRDG 201134Z 2012/2112 35004KT P6SM OVC030
     FM201600 33003KT P6SM SCT030 BKN200
     FM210000 00000KT P6SM SCT025 BKN100=



000
FTUS41 KPHI 201100
TAFPHL
TAF
KPHL 201134Z 2012/2118 36006KT P6SM OVC025
     FM201700 35005KT P6SM SCT030 BKN200
     FM210000 VRB02KT P6SM SCT030 BKN100
     FM211400 35005KT P6SM SCT030 BKN060=



000
FTUS41 KPHI 201100
TAFILG
TAF
KILG 201134Z 2012/2112 36005KT P6SM OVC030
     FM201600 34005KT P6SM SCT030 BKN200
     FM210000 VRB02KT P6SM SCT030 BKN100=



000
FTUS41 KPHI 201100
TAFABE
TAF
KABE 201134Z 2012/2112 35005KT P6SM OVC028
     FM201800 VRB03KT P6SM SCT030 BKN200
     FM210000 00000KT P6SM SCT025 BKN100=



000
FTUS41 KPHI 201100
TAFPNE
TAF
KPNE 201134Z 2012/2112 35007KT P6SM OVC025
     FM201800 35004KT P6SM SCT030 BKN200
     FM210000 VRB02KT P6SM SCT030 BKN100=



000
FTUS41 KPHI 201100
TAFTTN
TAF
KTTN 201134Z 2012/2112 34005KT P6SM OVC024
     FM201800 35004KT P6SM SCT030 BKN200
     FM210000 00000KT P6SM SCT025 BKN100=



000
FTUS41 KPHI 201100
TAFACY
TAF
KACY 201134Z 2012/2112 VRB03KT P6SM OVC028
     FM201700 34006KT P6SM SCT030 OVC180
     FM210000 VRB02KT P6SM SCT030 BKN100=



000
FTUS41 KPHI 201100
TAFMIV
TAF
KMIV 201134Z 2012/2112 VRB03KT P6SM OVC030
     FM201600 33004KT P6SM SCT030 OVC180
     FM210000 00000KT P6SM SCT030 BKN100=



000
FTUS41 KPHI 200800 AAA
TAFPHL
TAF AMD
KPHL 200815Z 2008/2112 33004KT P6SM OVC035
     FM201000 34004KT P6SM OVC030
     FM201600 01005KT P6SM SCT035 BKN200
     FM210200 VRB02KT P6SM SCT030 BKN100=



000
FTUS41 KPHI 200800 AAA
TAFILG
TAF AMD
KILG 200815Z 2008/2106 30004KT P6SM OVC035
     FM201000 33004KT P6SM OVC030
     FM201600 35005KT P6SM SCT035 BKN200
     FM210200 VRB02KT P6SM SCT030 BKN100=



000
FTUS41 KPHI 200800 AAA
TAFMIV
TAF AMD
KMIV 200815Z 2008/2106 00000KT P6SM OVC035
     FM201000 00000KT P6SM OVC030
     FM201600 33004KT P6SM SCT035 OVC180
     FM210200 00000KT P6SM SCT030 BKN100=



000
FTUS41 KPHI 200800 AAA
TAFRDG
TAF AMD
KRDG 200815Z 2008/2106 35004KT P6SM OVC030
     FM201600 35003KT P6SM SCT030 BKN200
     FM210200 00000KT P6SM SCT025 BKN100=



000
FTUS41 KPHI 200700 AAA
TAFACY
TAF AMD
KACY 200741Z 2008/2106 32003KT P6SM OVC030
     FM201500 34006KT P6SM SCT035 OVC180
     FM210200 VRB02KT P6SM SCT030 BKN100=



000
FTUS41 KPHI 200700 AAA
TAFACY
TAF AMD
KACY 200741Z 2008/2106 32003KT P6SM OVC030
     FM201500 34006KT P6SM SCT035 OVC180
     FM210200 VRB02KT P6SM SCT030 BKN100=



000
FTUS41 KPHI 200600 AAA
TAFPNE
TAF AMD
KPNE 200613Z 2006/2106 34004KT P6SM OVC030
     FM201500 01004KT P6SM SCT035 BKN200
     FM210200 VRB02KT P6SM SCT030 BKN100=



000
FTUS41 KPHI 200500
TAFILG
TAF
KILG 200533Z 2006/2106 28005KT P6SM SCT035
     FM200800 34004KT P6SM BKN030
     FM201400 35005KT P6SM SCT035 BKN200
     FM210200 VRB02KT P6SM SCT030 BKN100=



000
FTUS41 KPHI 200500
TAFPHL
TAF
KPHL 200533Z 2006/2112 33005KT P6SM OVC035
     FM200800 34004KT P6SM BKN030
     FM201400 01005KT P6SM SCT035 BKN200
     FM210200 VRB02KT P6SM SCT030 BKN100=



000
FTUS41 KPHI 200500
TAFPNE
TAF
KPNE 200533Z 2006/2106 33005KT P6SM OVC035
     FM200700 33004KT P6SM BKN030
     FM201500 01004KT P6SM SCT035 BKN200
     FM210200 VRB02KT P6SM SCT030 BKN100=



000
FTUS41 KPHI 200500
TAFRDG
TAF
KRDG 200533Z 2006/2106 33006KT P6SM OVC035
      TEMPO 2009/2013 BKN025
     FM201600 35003KT P6SM SCT030 BKN200
     FM210200 00000KT P6SM SCT025 BKN100=



000
FTUS41 KPHI 200500
TAFMIV
TAF
KMIV 200533Z 2006/2106 00000KT P6SM SCT250
     FM200800 00000KT P6SM SCT030 BKN200
     FM201500 33004KT P6SM SCT035 OVC180
     FM210200 00000KT P6SM SCT030 BKN100=



000
FTUS41 KPHI 200500
TAFTTN
TAF
KTTN 200533Z 2006/2106 33005KT P6SM OVC028
     FM201600 03004KT P6SM SCT030 BKN200
     FM210200 00000KT P6SM SCT025 BKN100=



000
FTUS41 KPHI 200500
TAFABE
TAF
KABE 200533Z 2006/2106 32006KT P6SM OVC028
     FM201700 VRB03KT P6SM SCT030 BKN200
     FM210200 00000KT P6SM SCT025 BKN100=



000
FTUS41 KPHI 200500
TAFACY
TAF
KACY 200533Z 2006/2106 31004KT P6SM SCT250
     FM200800 32003KT P6SM SCT030 BKN200
     FM201400 34006KT P6SM SCT035 OVC180
     FM210200 VRB02KT P6SM SCT030 BKN100=



000
FTUS41 KPHI 200200 AAA
TAFRDG
TAF AMD
KRDG 200217Z 2002/2024 33006KT P6SM BKN035
      TEMPO 2009/2013 BKN025
     FM201600 33003KT P6SM SCT035 BKN200=



000
FTUS41 KPHI 200000 AAA
TAFTTN
TAF AMD
KTTN 200039Z 2001/2024 35006KT P6SM BKN025
      TEMPO 2001/2005 SCT025 BKN200
     FM201400 03004KT P6SM SCT030 BKN200=



    US Dept of Commerce
    National Oceanic and Atmospheric Administration
    National Weather Service
    1325 East West Highway
    Silver Spring, MD 20910
    Page Author: NWS Internet Services Team
Disclaimer
Information Quality
Credits
Glossary
Privacy Policy
Freedom of Information Act (FOIA)
About Us
Career Opportunities